Aérodrome :







RETROUVEZ-NOUS SUR...

 
LOGIN :

S'inscrire | Disclaimer

   EN    FR    IT 

 









Légende :    VFR   VFR Marginal   IFR   IFR Intensif   IFR Très Intensif
Visi : 
Plafond : 
>= 8 km
>= 3000ft
5 à 8 km
1000 à 3000 ft
1500m à 5 km
500 à 1000 ft
800 à 1500m
200 à 500 ft
< 800m
< 200 ft
Symboles :   Orages  Brouillard  Fortes neiges  Fortes précipitations  Vent > 20 kt






- Altitude de l'aérodrome : 47 ft
- Code IATA : PUJ


MDPC - Punta Cana Int.

DERNIER METAR :
  • 291300Z 04004KT 9999 SCT018 24/23 Q1019

METARs EXPIRÉS :
  • 291200Z 00000KT 9999 SCT018 23/22 Q101
  • 291100Z 00000KT 9999 SCT016 22/21 Q1018 TEMPO 7000 -RA

TAF TAF MDPC
Valide du 29 à 12h jusqu'au 01 à 12h UTC


291000Z 2912/0112 10008KT 9999 FEW018
PROB30 2912/2918 7000 -RA BKN16 SCT070



MET'MAP, la Météo Aéronautique d'un coup d'oeil ! - Copyright ORBIFLY Décembre 2007 - Disclaimer

ORBIFLY MET'MAP TEAM :

Programmation & Développement : Alexandra Zaïnal
Sur une idée originale de : Baudouin d'Aumeries
Assistance à la programmation : Marc-Olivier Méhu
Soutien technique & logistique : Manuel Goepfert

Contact : metmap@orbifly.com




SOURCES & CREDITS :

   NOAA